createdAt,value
2023-01-17T00:02:13.257Z,97188.94
2023-01-17T00:04:53.115Z,97188.09
2023-01-17T00:07:33.945Z,97191.47
2023-01-17T00:10:07.681Z,97184.75
2023-01-17T00:12:37.270Z,97195.63
2023-01-17T00:15:07.454Z,97206.56
2023-01-17T00:17:36.147Z,97204.84
2023-01-17T00:20:19.314Z,97211.56
2023-01-17T00:22:59.638Z,97202.31
2023-01-17T00:25:40.358Z,97209.84
2023-01-17T00:28:08.257Z,97209.06
2023-01-17T00:30:35.700Z,97211.53
2023-01-17T00:33:03.277Z,97207.28
2023-01-17T00:35:33.308Z,97203.06
2023-01-17T00:38:01.954Z,97207.28
2023-01-17T00:40:29.704Z,97207.28
2023-01-17T00:43:08.352Z,97197.97
2023-01-17T00:45:47.030Z,97200.47
2023-01-17T00:48:24.566Z,97187.00
2023-01-17T00:51:04.632Z,97186.16
2023-01-17T00:53:44.227Z,97188.63
2023-01-17T00:56:22.828Z,97179.38
2023-01-17T00:59:01.681Z,97179.38
2023-01-17T01:01:40.637Z,97176.84
2023-01-17T01:04:19.899Z,97177.66
2023-01-17T01:06:58.903Z,97170.06
2023-01-17T01:09:38.044Z,97173.44
2023-01-17T01:12:17.041Z,97167.50
2023-01-17T01:14:54.806Z,97170.81
2023-01-17T01:17:33.465Z,97174.16
2023-01-17T01:20:12.434Z,97169.09
2023-01-17T01:22:52.356Z,97174.09
2023-01-17T01:25:31.060Z,97175.78
2023-01-17T01:28:15.192Z,97169.06
2023-01-17T01:30:52.833Z,97160.63
2023-01-17T01:33:21.179Z,97151.38
2023-01-17T01:35:51.456Z,97149.69
2023-01-17T01:38:23.921Z,97155.56
2023-01-17T01:40:54.653Z,97156.41
2023-01-17T01:43:42.547Z,97172.38
2023-01-17T01:46:14.783Z,97174.06
2023-01-17T01:48:48.745Z,97177.38
2023-01-17T01:51:23.161Z,97174.00
2023-01-17T01:54:00.162Z,97173.13
2023-01-17T01:56:30.941Z,97172.22
2023-01-17T01:59:03.412Z,97177.25
2023-01-17T02:01:37.776Z,97170.50
2023-01-17T02:04:10.295Z,97175.59
2023-01-17T02:06:43.272Z,97174.75
2023-01-17T02:09:16.572Z,97175.59
2023-01-17T02:11:47.413Z,97179.00
2023-01-17T02:14:17.307Z,97179.88
2023-01-17T02:17:04.826Z,97182.38
2023-01-17T02:20:02.265Z,97178.97
2023-01-17T02:22:52.985Z,97172.22
2023-01-17T02:25:49.564Z,97178.09
2023-01-17T02:28:35.814Z,97160.44
2023-01-17T02:31:13.941Z,97164.66
2023-01-17T02:33:51.579Z,97163.81
2023-01-17T02:36:25.407Z,97155.38
2023-01-17T02:38:59.987Z,97157.06
2023-01-17T02:41:34.876Z,97152.81
2023-01-17T02:44:04.007Z,97149.47
2023-01-17T02:46:34.199Z,97141.91
2023-01-17T02:49:03.241Z,97142.72
2023-01-17T02:52:00.670Z,97148.59
2023-01-17T02:54:52.100Z,97140.22
2023-01-17T02:57:46.803Z,97148.66
2023-01-17T03:00:22.874Z,97146.16
2023-01-17T03:03:03.497Z,97137.75
2023-01-17T03:05:38.220Z,97135.22
2023-01-17T03:08:08.112Z,97147.84
2023-01-17T03:10:38.272Z,97147.91
2023-01-17T03:13:06.973Z,97147.06
2023-01-17T03:15:35.801Z,97153.81
2023-01-17T03:18:12.916Z,97157.22
2023-01-17T03:20:41.759Z,97154.69
2023-01-17T03:23:10.507Z,97153.88
2023-01-17T03:25:39.291Z,97154.78
2023-01-17T03:28:08.964Z,97150.63
2023-01-17T03:30:37.840Z,97148.19
2023-01-17T03:33:08.030Z,97142.38
2023-01-17T03:35:36.993Z,97137.31
2023-01-17T03:38:05.644Z,97139.84
2023-01-17T03:40:34.561Z,97139.09
2023-01-17T03:43:03.281Z,97144.19
2023-01-17T03:45:33.561Z,97143.38
2023-01-17T03:48:02.969Z,97136.72
2023-01-17T03:50:33.184Z,97124.16
2023-01-17T03:53:02.212Z,97118.31
2023-01-17T03:55:30.975Z,97124.16
2023-01-17T03:58:00.520Z,97119.03
2023-01-17T04:00:29.231Z,97122.41
2023-01-17T04:02:58.233Z,97125.81
2023-01-17T04:05:27.218Z,97140.97
2023-01-17T04:07:57.404Z,97125.88
2023-01-17T04:10:26.289Z,97125.88
2023-01-17T04:12:55.043Z,97126.72
2023-01-17T04:15:23.802Z,97124.25
2023-01-17T04:17:52.673Z,97136.88
2023-01-17T04:20:32.272Z,97141.13
2023-01-17T04:23:02.694Z,97141.13
2023-01-17T04:25:31.875Z,97136.09
2023-01-17T04:28:01.870Z,97139.47
2023-01-17T04:30:31.398Z,97142.06
2023-01-17T04:33:00.758Z,97134.53
2023-01-17T04:35:33.584Z,97137.03
2023-01-17T04:38:03.710Z,97125.28
2023-01-17T04:40:32.478Z,97138.72
2023-01-17T04:43:01.314Z,97141.25
2023-01-17T04:45:30.092Z,97129.47
2023-01-17T04:48:05.295Z,97142.94
2023-01-17T04:50:34.330Z,97145.53
2023-01-17T04:53:04.493Z,97146.38
2023-01-17T04:55:33.515Z,97146.38
2023-01-17T04:58:02.168Z,97150.59
2023-01-17T05:00:31.344Z,97154.75
2023-01-17T05:03:00.048Z,97161.59
2023-01-17T05:05:28.881Z,97154.97
2023-01-17T05:07:58.221Z,97161.72
2023-01-17T05:10:28.736Z,97158.41
2023-01-17T05:12:58.447Z,97165.13
2023-01-17T05:15:28.599Z,97165.09
2023-01-17T05:17:57.818Z,97165.13
2023-01-17T05:20:28.323Z,97165.19
2023-01-17T05:22:58.210Z,97171.06
2023-01-17T05:25:32.707Z,97166.81
2023-01-17T05:28:01.786Z,97177.78
2023-01-17T05:30:32.249Z,97166.09
2023-01-17T05:33:01.407Z,97178.63
2023-01-17T05:35:32.998Z,97184.56
2023-01-17T05:38:02.053Z,97184.56
2023-01-17T05:40:34.376Z,97187.19
2023-01-17T05:43:04.699Z,97190.69
2023-01-17T05:45:35.041Z,97195.78
2023-01-17T05:48:04.774Z,97203.38
2023-01-17T05:50:35.891Z,97200.94
2023-01-17T05:53:07.561Z,97192.66
2023-01-17T05:55:38.629Z,97196.03
2023-01-17T05:58:08.880Z,97197.72
2023-01-17T06:00:38.150Z,97200.25
2023-01-17T06:03:06.986Z,97211.16
2023-01-17T06:05:35.768Z,97204.47
2023-01-17T06:08:05.105Z,97209.59
2023-01-17T06:10:34.032Z,97213.00
2023-01-17T06:13:06.610Z,97209.59
2023-01-17T06:15:37.137Z,97223.06
2023-01-17T06:18:07.380Z,97228.13
2023-01-17T06:20:36.781Z,97236.53
2023-01-17T06:23:07.683Z,97225.63
2023-01-17T06:25:39.475Z,97229.03
2023-01-17T06:28:09.796Z,97233.22
2023-01-17T06:30:39.246Z,97226.53
2023-01-17T06:33:08.055Z,97224.00
2023-01-17T06:35:37.789Z,97223.22
2023-01-17T06:38:07.041Z,97217.38
2023-01-17T06:40:35.765Z,97208.16
2023-01-17T06:43:06.597Z,97204.06
2023-01-17T06:45:37.835Z,97199.09
2023-01-17T06:48:06.981Z,97205.78
2023-01-17T06:50:36.351Z,97205.00
2023-01-17T06:53:07.715Z,97205.91
2023-01-17T06:55:40.519Z,97208.44
2023-01-17T06:58:11.433Z,97200.03
2023-01-17T07:00:41.758Z,97191.66
2023-01-17T07:03:20.390Z,97194.19
2023-01-17T07:05:49.796Z,97183.31
2023-01-17T07:08:19.421Z,97174.13
2023-01-17T07:10:48.909Z,97171.59
2023-01-17T07:13:17.671Z,97168.41
2023-01-17T07:15:47.932Z,97169.19
2023-01-17T07:18:20.824Z,97168.31
2023-01-17T07:20:50.721Z,97180.03
2023-01-17T07:23:20.095Z,97200.09
2023-01-17T07:25:53.314Z,97210.16
2023-01-17T07:28:22.212Z,97210.06
2023-01-17T07:30:52.659Z,97213.34
2023-01-17T07:33:21.942Z,97231.75
2023-01-17T07:35:50.654Z,97240.97
2023-01-17T07:38:21.409Z,97248.47
2023-01-17T07:40:50.214Z,97262.75
2023-01-17T07:43:18.958Z,97269.47
2023-01-17T07:45:52.648Z,97266.97
2023-01-17T07:48:22.852Z,97271.94
2023-01-17T07:50:56.070Z,97266.94
2023-01-17T07:53:25.876Z,97273.59
2023-01-17T07:55:55.447Z,97271.91
2023-01-17T07:58:24.185Z,97282.75
2023-01-17T08:00:54.438Z,97276.13
2023-01-17T08:03:23.338Z,97292.84
2023-01-17T08:05:57.766Z,97294.50
2023-01-17T08:08:26.501Z,97293.63
2023-01-17T08:10:55.160Z,97303.69
2023-01-17T08:13:24.100Z,97314.59
2023-01-17T08:15:54.695Z,97316.19
2023-01-17T08:18:23.505Z,97324.56
2023-01-17T08:20:52.491Z,97327.06
2023-01-17T08:23:21.525Z,97332.09
2023-01-17T08:25:50.277Z,97332.06
2023-01-17T08:28:19.956Z,97338.72
2023-01-17T08:30:48.462Z,97343.69
2023-01-17T08:33:18.646Z,97345.22
2023-01-17T08:35:54.099Z,97340.06
2023-01-17T08:38:24.017Z,97340.72
2023-01-17T08:40:52.719Z,97337.16
2023-01-17T08:43:21.997Z,97335.38
2023-01-17T08:45:51.932Z,97331.16
2023-01-17T08:48:22.151Z,97331.06
2023-01-17T08:50:51.149Z,97328.75
2023-01-17T08:53:21.784Z,97342.16
2023-01-17T08:55:51.758Z,97353.31
2023-01-17T08:58:20.641Z,97365.09
2023-01-17T09:00:49.507Z,97374.38
2023-01-17T09:03:18.503Z,97373.63
2023-01-17T09:05:48.630Z,97377.84
2023-01-17T09:08:17.381Z,97387.06
2023-01-17T09:10:47.495Z,97392.16
2023-01-17T09:13:16.559Z,97393.06
2023-01-17T09:15:45.110Z,97402.38
2023-01-17T09:18:14.246Z,97401.56
2023-01-17T09:20:42.886Z,97395.75
2023-01-17T09:23:13.121Z,97391.56
2023-01-17T09:25:44.980Z,97382.28
2023-01-17T09:28:13.660Z,97394.91
2023-01-17T09:30:42.397Z,97383.97
2023-01-17T09:33:11.220Z,97394.06
2023-01-17T09:35:39.876Z,97388.13
2023-01-17T09:38:08.804Z,97405.78
2023-01-17T09:40:44.008Z,97407.44
2023-01-17T09:43:22.159Z,97404.03
2023-01-17T09:45:51.332Z,97403.97
2023-01-17T09:48:26.697Z,97407.28
2023-01-17T09:51:01.402Z,97414.84
2023-01-17T09:53:36.365Z,97416.56
2023-01-17T09:56:12.119Z,97430.03
2023-01-17T09:58:49.089Z,97430.94
2023-01-17T10:01:28.615Z,97426.75
2023-01-17T10:04:01.787Z,97436.00
2023-01-17T10:06:45.183Z,97432.66
2023-01-17T10:09:34.216Z,97432.66
2023-01-17T10:12:32.815Z,97441.81
2023-01-17T10:15:22.669Z,97442.66
2023-01-17T10:17:58.660Z,97435.88
2023-01-17T10:20:45.332Z,97427.47
2023-01-17T10:23:29.446Z,97440.84
2023-01-17T10:26:03.276Z,97439.16
2023-01-17T10:28:39.739Z,97439.97
2023-01-17T10:31:11.953Z,97440.81
2023-01-17T10:33:46.405Z,97449.19
2023-01-17T10:36:20.923Z,97450.00
2023-01-17T10:38:51.402Z,97449.25
2023-01-17T10:41:26.834Z,97461.81
2023-01-17T10:44:07.306Z,97464.47
2023-01-17T10:46:40.734Z,97462.94
2023-01-17T10:49:18.173Z,97454.63
2023-01-17T10:52:01.374Z,97451.31
2023-01-17T10:54:51.618Z,97437.84
2023-01-17T10:57:23.824Z,97429.41
2023-01-17T11:00:00.003Z,97436.13
2023-01-17T11:02:33.906Z,97439.44
2023-01-17T11:05:13.626Z,97431.84
2023-01-17T11:07:58.404Z,97420.03
2023-01-17T11:10:40.874Z,97395.63
2023-01-17T11:13:23.777Z,97389.69
2023-01-17T11:15:58.050Z,97382.91
2023-01-17T11:18:29.770Z,97373.56
2023-01-17T11:21:13.824Z,97374.38
2023-01-17T11:23:44.989Z,97368.47
2023-01-17T11:26:24.531Z,97355.91
2023-01-17T11:28:53.307Z,97349.91
2023-01-17T11:31:28.165Z,97359.09
2023-01-17T11:34:16.961Z,97341.50
2023-01-17T11:36:46.256Z,97354.16
2023-01-17T11:39:27.714Z,97354.72
2023-01-17T11:41:57.096Z,97349.16
2023-01-17T11:44:28.600Z,97355.44
2023-01-17T11:47:17.376Z,97360.00
2023-01-17T11:49:48.651Z,97359.91
2023-01-17T11:52:24.763Z,97373.31
2023-01-17T11:54:55.755Z,97376.81
2023-01-17T11:57:28.243Z,97368.56
2023-01-17T12:00:05.142Z,97371.97
2023-01-17T12:03:04.925Z,97370.31
2023-01-17T12:05:47.061Z,97361.84
2023-01-17T12:08:26.985Z,97361.91
2023-01-17T12:11:05.856Z,97354.19
2023-01-17T12:13:53.138Z,97352.09
2023-01-17T12:16:35.158Z,97342.44
2023-01-17T12:19:27.979Z,97333.50
2023-01-17T12:22:08.556Z,97332.94
2023-01-17T12:24:51.647Z,97337.44
2023-01-17T12:27:30.639Z,97337.91
2023-01-17T12:30:13.202Z,97332.88
2023-01-17T12:33:09.725Z,97347.66
2023-01-17T12:35:45.336Z,97339.25
2023-01-17T12:38:31.532Z,97354.16
2023-01-17T12:41:08.853Z,97355.97
2023-01-17T12:43:41.437Z,97360.47
2023-01-17T12:46:21.425Z,97368.19
2023-01-17T12:48:54.017Z,97365.78
2023-01-17T12:51:29.574Z,97369.34
2023-01-17T12:54:04.687Z,97373.72
2023-01-17T12:56:38.090Z,97371.31
2023-01-17T12:59:16.791Z,97361.34
2023-01-17T13:01:58.200Z,97358.91
2023-01-17T13:04:30.856Z,97371.66
2023-01-17T13:07:11.960Z,97372.66
2023-01-17T13:09:47.599Z,97387.13
2023-01-17T13:12:20.609Z,97367.84
2023-01-17T13:14:50.179Z,97365.41
2023-01-17T13:17:33.014Z,97378.06
2023-01-17T13:20:08.355Z,97364.66
2023-01-17T13:22:41.446Z,97365.50
2023-01-17T13:25:25.639Z,97363.84
2023-01-17T13:28:05.036Z,97353.06
2023-01-17T13:30:56.958Z,97360.66
2023-01-17T13:33:47.569Z,97343.09
2023-01-17T13:36:30.093Z,97348.09
2023-01-17T13:39:21.771Z,97349.75
2023-01-17T13:41:54.955Z,97352.28
2023-01-17T13:44:30.515Z,97363.28
2023-01-17T13:47:02.467Z,97364.94
2023-01-17T13:49:38.023Z,97375.88
2023-01-17T13:52:11.101Z,97383.50
2023-01-17T13:54:49.230Z,97379.25
2023-01-17T13:57:42.103Z,97382.63
2023-01-17T14:00:49.426Z,97373.34
2023-01-17T14:03:48.338Z,97354.97
2023-01-17T14:06:40.798Z,97354.94
2023-01-17T14:09:18.177Z,97344.88
2023-01-17T14:12:25.425Z,97339.91
2023-01-17T14:14:57.605Z,97331.63
2023-01-17T14:17:51.103Z,97326.59
2023-01-17T14:20:45.557Z,97336.75
2023-01-17T14:23:34.723Z,97334.25
2023-01-17T14:26:20.790Z,97335.19
2023-01-17T14:28:51.288Z,97341.97
2023-01-17T14:31:23.322Z,97335.41
2023-01-17T14:33:52.303Z,97327.84
2023-01-17T14:36:30.675Z,97320.34
2023-01-17T14:38:59.323Z,97334.63
2023-01-17T14:41:30.607Z,97330.47
2023-01-17T14:44:01.273Z,97319.56
2023-01-17T14:46:32.794Z,97322.91
2023-01-17T14:49:04.109Z,97320.44
2023-01-17T14:51:35.336Z,97306.16
2023-01-17T14:54:06.532Z,97291.13
2023-01-17T14:56:35.581Z,97287.84
2023-01-17T14:59:17.486Z,97285.47
2023-01-17T15:02:06.575Z,97288.88
2023-01-17T15:04:39.765Z,97278.00
2023-01-17T15:07:16.119Z,97277.13
2023-01-17T15:09:46.547Z,97276.28
2023-01-17T15:12:15.786Z,97275.56
2023-01-17T15:14:47.943Z,97261.28
2023-01-17T15:17:21.330Z,97246.97
2023-01-17T15:19:54.379Z,97243.66
2023-01-17T15:22:23.838Z,97236.09
2023-01-17T15:24:53.043Z,97225.16
2023-01-17T15:27:22.342Z,97204.22
2023-01-17T15:29:52.866Z,97200.00
2023-01-17T15:32:24.406Z,97201.75
2023-01-17T15:34:54.124Z,97203.50
2023-01-17T15:37:24.663Z,97220.47
2023-01-17T15:39:53.656Z,97213.78
2023-01-17T15:42:26.671Z,97209.63
2023-01-17T15:44:59.729Z,97209.53
2023-01-17T15:47:31.208Z,97224.69
2023-01-17T15:50:00.234Z,97225.56
2023-01-17T15:52:29.761Z,97216.34
2023-01-17T15:55:13.533Z,97208.81
2023-01-17T15:57:47.768Z,97208.81
2023-01-17T16:00:26.562Z,97208.81
2023-01-17T16:02:58.292Z,97218.13
2023-01-17T16:05:42.146Z,97214.75
2023-01-17T16:08:27.117Z,97215.53
2023-01-17T16:10:58.772Z,97213.13
2023-01-17T16:13:27.602Z,97225.72
2023-01-17T16:16:12.153Z,97231.56
2023-01-17T16:18:42.511Z,97209.81
2023-01-17T16:21:24.614Z,97203.03
2023-01-17T16:23:54.252Z,97195.47
2023-01-17T16:26:22.814Z,97200.56
2023-01-17T16:28:51.740Z,97199.72
2023-01-17T16:31:22.500Z,97202.25
2023-01-17T16:33:52.194Z,97206.47
2023-01-17T16:36:23.088Z,97209.81
2023-01-17T16:38:53.290Z,97203.94
2023-01-17T16:41:22.541Z,97220.69
2023-01-17T16:44:02.243Z,97241.63
2023-01-17T16:46:33.295Z,97247.50
2023-01-17T16:49:02.535Z,97239.09
2023-01-17T16:51:31.579Z,97241.63
2023-01-17T16:54:00.789Z,97239.09
2023-01-17T16:56:29.588Z,97249.19
2023-01-17T16:58:58.414Z,97243.22
2023-01-17T17:01:27.363Z,97231.44
2023-01-17T17:03:58.079Z,97241.47
2023-01-17T17:06:27.341Z,97233.91
2023-01-17T17:08:56.227Z,97235.53
2023-01-17T17:11:25.121Z,97231.34
2023-01-17T17:13:54.210Z,97232.97
2023-01-17T17:16:26.683Z,97239.69
2023-01-17T17:18:58.912Z,97222.84
2023-01-17T17:21:30.602Z,97230.38
2023-01-17T17:24:01.565Z,97236.19
2023-01-17T17:26:32.420Z,97230.25
2023-01-17T17:29:01.529Z,97234.47
2023-01-17T17:31:30.375Z,97233.59
2023-01-17T17:34:02.658Z,97242.00
2023-01-17T17:36:32.359Z,97238.63
2023-01-17T17:39:02.383Z,97238.63
2023-01-17T17:41:33.575Z,97243.69
2023-01-17T17:44:03.825Z,97245.44
2023-01-17T17:46:34.024Z,97247.97
2023-01-17T17:49:04.367Z,97243.69
2023-01-17T17:51:35.904Z,97235.28
2023-01-17T17:54:06.644Z,97238.59
2023-01-17T17:56:36.103Z,97240.28
2023-01-17T17:59:07.086Z,97234.38
2023-01-17T18:01:38.493Z,97230.25
2023-01-17T18:04:09.817Z,97225.22
2023-01-17T18:06:39.015Z,97228.59
2023-01-17T18:09:09.125Z,97230.25
2023-01-17T18:11:40.484Z,97226.94
2023-01-17T18:14:14.287Z,97218.56
2023-01-17T18:16:45.263Z,97215.16
2023-01-17T18:19:17.704Z,97208.47
2023-01-17T18:21:46.833Z,97210.97
2023-01-17T18:24:17.270Z,97195.03
2023-01-17T18:26:47.855Z,97200.88
2023-01-17T18:29:18.227Z,97198.34
2023-01-17T18:31:47.901Z,97190.78
2023-01-17T18:34:19.548Z,97188.34
2023-01-17T18:36:48.851Z,97191.75
2023-01-17T18:39:19.583Z,97188.38
2023-01-17T18:41:48.696Z,97183.41
2023-01-17T18:44:21.537Z,97176.63
2023-01-17T18:46:50.973Z,97174.91
2023-01-17T18:49:21.463Z,97161.44
2023-01-17T18:51:51.507Z,97153.03
2023-01-17T18:54:22.163Z,97158.03
2023-01-17T18:56:51.259Z,97153.03
2023-01-17T18:59:20.502Z,97149.72
2023-01-17T19:01:49.306Z,97148.06
2023-01-17T19:04:19.100Z,97143.19
2023-01-17T19:06:50.007Z,97136.41
2023-01-17T19:09:19.618Z,97130.50
2023-01-17T19:11:48.324Z,97121.19
2023-01-17T19:14:17.229Z,97106.88
2023-01-17T19:16:46.298Z,97097.75
2023-01-17T19:19:17.409Z,97079.41
2023-01-17T19:21:46.330Z,97076.09
2023-01-17T19:24:16.450Z,97064.31
2023-01-17T19:26:45.689Z,97069.44
2023-01-17T19:29:14.419Z,97063.59
2023-01-17T19:31:43.918Z,97058.53
2023-01-17T19:34:16.166Z,97037.50
2023-01-17T19:36:45.448Z,97045.03
2023-01-17T19:39:15.653Z,97033.28
2023-01-17T19:41:46.551Z,97030.72
2023-01-17T19:44:16.318Z,97022.34
2023-01-17T19:46:46.419Z,97034.84
2023-01-17T19:49:20.040Z,97030.69
2023-01-17T19:51:49.779Z,97037.31
2023-01-17T19:54:19.993Z,97026.38
2023-01-17T19:56:48.859Z,97009.66
2023-01-17T19:59:20.343Z,97015.41
2023-01-17T20:01:49.382Z,97008.72
2023-01-17T20:04:19.128Z,97012.09
2023-01-17T20:06:47.993Z,97000.34
2023-01-17T20:09:16.712Z,97003.66
2023-01-17T20:11:47.043Z,97004.53
2023-01-17T20:14:16.783Z,96995.34
2023-01-17T20:16:47.693Z,96986.97
2023-01-17T20:19:16.656Z,96990.41
2023-01-17T20:21:45.402Z,96988.72
2023-01-17T20:24:16.500Z,96984.56
2023-01-17T20:26:46.728Z,96975.34
2023-01-17T20:29:17.850Z,96972.03
2023-01-17T20:31:47.104Z,96965.44
2023-01-17T20:34:19.565Z,96959.56
2023-01-17T20:36:48.492Z,96952.00
2023-01-17T20:39:18.421Z,96947.84
2023-01-17T20:41:51.811Z,96947.03
2023-01-17T20:44:21.010Z,96947.03
2023-01-17T20:46:50.034Z,96941.13
2023-01-17T20:49:20.658Z,96942.06
2023-01-17T20:51:50.151Z,96930.44
2023-01-17T20:54:20.532Z,96924.59
2023-01-17T20:56:51.710Z,96921.28
2023-01-17T20:59:22.598Z,96910.44
2023-01-17T21:01:51.999Z,96903.72
2023-01-17T21:04:26.048Z,96907.03
2023-01-17T21:06:55.661Z,96918.84
2023-01-17T21:09:24.429Z,96908.81
2023-01-17T21:12:01.320Z,96906.28
2023-01-17T21:14:30.390Z,96904.56
2023-01-17T21:16:59.190Z,96902.00
2023-01-17T21:19:28.398Z,96896.94
2023-01-17T21:21:57.434Z,96892.72
2023-01-17T21:24:29.068Z,96885.19
2023-01-17T21:26:59.314Z,96879.31
2023-01-17T21:29:29.530Z,96861.66
2023-01-17T21:31:58.370Z,96862.50
2023-01-17T21:34:28.078Z,96856.56
2023-01-17T21:36:56.556Z,96850.69
2023-01-17T21:39:25.276Z,96852.41
2023-01-17T21:41:54.294Z,96843.16
2023-01-17T21:44:26.457Z,96847.34
2023-01-17T21:46:56.600Z,96844.00
2023-01-17T21:49:25.699Z,96851.53
2023-01-17T21:52:04.036Z,96843.94
2023-01-17T21:54:42.696Z,96840.59
2023-01-17T21:57:21.609Z,96836.41
2023-01-17T21:59:51.849Z,96838.06
2023-01-17T22:02:21.235Z,96827.16
2023-01-17T22:04:50.401Z,96812.91
2023-01-17T22:07:19.230Z,96814.59
2023-01-17T22:09:47.908Z,96812.84
2023-01-17T22:12:16.971Z,96822.84
2023-01-17T22:14:45.771Z,96814.50
2023-01-17T22:17:15.938Z,96822.81
2023-01-17T22:19:46.155Z,96816.88
2023-01-17T22:22:15.067Z,96820.19
2023-01-17T22:24:43.856Z,96807.63
2023-01-17T22:27:14.124Z,96808.47
2023-01-17T22:29:43.108Z,96803.47
2023-01-17T22:32:11.762Z,96792.53
2023-01-17T22:34:41.978Z,96782.50
2023-01-17T22:37:11.392Z,96774.09
2023-01-17T22:39:40.466Z,96773.25
2023-01-17T22:42:10.239Z,96769.06
2023-01-17T22:44:38.879Z,96763.19
2023-01-17T22:47:07.666Z,96762.28
2023-01-17T22:49:36.362Z,96757.19
2023-01-17T22:52:06.619Z,96737.00
2023-01-17T22:54:35.382Z,96738.69
2023-01-17T22:57:04.102Z,96735.34
2023-01-17T22:59:34.186Z,96728.72
2023-01-17T23:02:02.871Z,96727.03
2023-01-17T23:04:31.767Z,96727.03
2023-01-17T23:07:00.548Z,96722.09
2023-01-17T23:09:30.849Z,96720.47
2023-01-17T23:12:00.830Z,96718.03
2023-01-17T23:14:52.970Z,96723.09
2023-01-17T23:17:33.201Z,96734.91
2023-01-17T23:20:01.931Z,96717.25
2023-01-17T23:22:32.554Z,96722.28
2023-01-17T23:25:04.334Z,96715.56
2023-01-17T23:27:45.068Z,96708.84
2023-01-17T23:30:16.375Z,96713.09
2023-01-17T23:32:47.971Z,96699.75
2023-01-17T23:35:17.539Z,96710.66
2023-01-17T23:37:56.201Z,96714.03
2023-01-17T23:40:26.720Z,96710.66
2023-01-17T23:43:05.510Z,96707.28
2023-01-17T23:45:36.275Z,96713.16
2023-01-17T23:48:09.565Z,96707.28
2023-01-17T23:50:39.554Z,96711.47
2023-01-17T23:53:08.534Z,96706.47
2023-01-17T23:55:40.595Z,96704.03
2023-01-17T23:58:12.851Z,96698.13
